Time;durP1;ratioP1;P1;durP2;ratioP2;P2;SDS_P1;SDS_P2;PMS_P1;PMS_P2;Temp;Humidity;BMP_temperature;BMP_pressure;BME280_temperature;BME280_humidity;BME280_pressure;Samples;Min_cycle;Max_cycle;Signal;HPM_P1;HPM_P2
2024/01/02 00:01:24;;;;;;;;;;;;;;;15.65;47.03;100422.63;5075718;28;1008;-52
2024/01/02 00:03:50;;;;;;;;;;;;;;;17.36;46.72;100429.09;5067726;28;2001;-52
2024/01/02 00:06:16;;;;;;;;;;;;;;;16.81;47.20;100429.00;5075802;28;1070;-51
2024/01/02 00:08:42;;;;;;;;;;;;;;;16.08;47.17;100424.84;5075792;28;1030;-53
2024/01/02 00:11:08;;;;;;;;;;;;;;;15.85;46.44;100433.53;5075430;28;1072;-53
2024/01/02 00:13:33;;;;;;;;;;;;;;;16.37;47.85;100427.91;5074775;28;1011;-51
2024/01/02 00:15:59;;;;;;;;;;;;;;;16.58;47.59;100431.69;5061490;28;1049;-50
2024/01/02 00:18:25;;;;;;;;;;;;;;;15.90;47.48;100431.38;5075570;28;1035;-53
2024/01/02 00:20:50;;;;;;;;;;;;;;;14.83;46.58;100296.13;5070005;28;1224;-49
2024/01/02 00:23:16;;;;;;;;;;;;;;;15.58;45.69;100431.97;5050967;28;1930;-51
2024/01/02 00:25:42;;;;;;;;;;;;;;;16.99;47.08;100448.81;5056031;28;1107;-48
2024/01/02 00:28:09;;;;;;;;;;;;;;;15.96;47.25;100450.47;5069974;28;2611;-49
2024/01/02 00:30:34;;;;;;;;;;;;;;;15.67;46.78;100451.66;5061789;28;1090;-50
2024/01/02 00:33:03;;;;;;;;;;;;;;;15.87;47.22;100460.81;5041147;28;1261;-51
2024/01/02 00:35:29;;;;;;;;;;;;;;;17.49;45.99;100460.84;5048559;28;1179;-50
2024/01/02 00:37:55;;;;;;;;;;;;;;;16.11;47.66;100464.41;5036445;28;1439;-52
2024/01/02 00:40:20;;;;;;;;;;;;;;;16.70;48.12;100461.75;5055336;28;1066;-54
2024/01/02 00:42:46;;;;;;;;;;;;;;;16.94;47.11;100466.94;5055191;28;1976;-52
2024/01/02 00:45:11;;;;;;;;;;;;;;;16.19;47.42;100455.88;5053468;28;997;-52
2024/01/02 00:47:37;;;;;;;;;;;;;;;15.86;46.78;100459.13;5054776;28;1137;-51
2024/01/02 00:50:03;;;;;;;;;;;;;;;15.73;47.25;100463.66;5051663;28;1078;-53
2024/01/02 00:52:29;;;;;;;;;;;;;;;17.10;46.77;100460.44;5053368;28;1039;-51
2024/01/02 00:54:54;;;;;;;;;;;;;;;15.18;47.88;100327.13;5036532;28;1075;-52
2024/01/02 00:57:20;;;;;;;;;;;;;;;15.74;46.50;100454.72;5036725;28;1797;-53
2024/01/02 00:59:46;;;;;;;;;;;;;;;15.61;46.38;100455.66;5049993;28;1080;-51
2024/01/02 01:02:11;;;;;;;;;;;;;;;16.63;47.36;100461.38;5054780;28;1054;-54
2024/01/02 01:04:40;;;;;;;;;;;;;;;16.88;46.95;100454.13;5054352;28;1929;-50
2024/01/02 01:07:05;;;;;;;;;;;;;;;15.98;47.35;100448.56;5042988;28;1064;-54
2024/01/02 01:09:31;;;;;;;;;;;;;;;15.72;46.75;100440.72;5050103;28;1242;-53
2024/01/02 01:11:57;;;;;;;;;;;;;;;15.82;47.50;100447.03;5047625;28;1084;-52
2024/01/02 01:14:22;;;;;;;;;;;;;;;16.44;47.24;100440.69;5052076;28;1131;-55
2024/01/02 01:16:48;;;;;;;;;;;;;;;15.77;47.32;100438.56;5053617;28;1008;-54
2024/01/02 01:19:13;;;;;;;;;;;;;;;16.02;48.22;100437.63;5048798;28;1051;-53
2024/01/02 01:21:39;;;;;;;;;;;;;;;17.34;46.17;100432.81;5047400;28;1047;-52
2024/01/02 01:24:05;;;;;;;;;;;;;;;16.17;47.36;100432.09;5050705;28;1985;-50
2024/01/02 01:26:30;;;;;;;;;;;;;;;15.83;46.80;100431.97;5052430;28;2341;-50
2024/01/02 01:28:56;;;;;;;;;;;;;;;15.61;46.03;100429.13;5054419;28;1034;-51
2024/01/02 01:31:21;;;;;;;;;;;;;;;15.52;45.59;100429.78;5053452;28;2130;-51
2024/01/02 01:33:47;;;;;;;;;;;;;;;16.82;47.10;100439.50;5057621;28;1254;-51
2024/01/02 01:36:13;;;;;;;;;;;;;;;16.16;47.33;100433.06;5078941;28;1012;-50
2024/01/02 01:38:39;;;;;;;;;;;;;;;15.71;46.90;100431.94;5074531;28;1050;-50
2024/01/02 01:41:04;;;;;;;;;;;;;;;16.63;47.88;100438.31;5052643;28;1115;-51
2024/01/02 01:43:30;;;;;;;;;;;;;;;16.69;47.13;100439.66;5077916;28;1901;-49
2024/01/02 01:45:55;;;;;;;;;;;;;;;15.94;47.28;100447.06;5078552;28;1047;-49
2024/01/02 01:48:21;;;;;;;;;;;;;;;17.01;47.17;100448.69;5060353;28;1159;-51
2024/01/02 01:50:47;;;;;;;;;;;;;;;16.42;47.55;100453.25;5074166;28;1146;-52
2024/01/02 01:53:12;;;;;;;;;;;;;;;15.99;47.11;100447.59;5037361;28;1161;-52
2024/01/02 01:55:38;;;;;;;;;;;;;;;15.70;46.41;100454.09;5070052;28;997;-50
2024/01/02 01:58:03;;;;;;;;;;;;;;;15.57;45.58;100453.31;5060894;28;1066;-51
2024/01/02 02:00:29;;;;;;;;;;;;;;;16.18;46.99;100449.72;5069925;28;1180;-51
2024/01/02 02:02:55;;;;;;;;;;;;;;;17.72;45.77;100458.09;5073354;28;1909;-51
2024/01/02 02:05:21;;;;;;;;;;;;;;;16.25;47.67;100453.59;5051243;28;1062;-53
2024/01/02 02:07:47;;;;;;;;;;;;;;;15.93;46.93;100451.56;5056147;28;1106;-53
2024/01/02 02:10:12;;;;;;;;;;;;;;;17.53;46.08;100463.22;5058590;28;1122;-50
2024/01/02 02:12:38;;;;;;;;;;;;;;;16.30;47.68;100460.38;5058028;28;1290;-52
2024/01/02 02:15:04;;;;;;;;;;;;;;;15.89;47.12;100452.72;5053849;28;1112;-48
2024/01/02 02:17:30;;;;;;;;;;;;;;;15.80;46.33;100456.91;5064764;28;988;-52
2024/01/02 02:19:56;;;;;;;;;;;;;;;15.52;45.99;100467.75;5044588;28;1183;-50
2024/01/02 02:22:28;;;;;;;;;;;;;;;17.04;47.20;100471.50;5062173;28;1056;-51
2024/01/02 02:24:54;;;;;;;;;;;;;;;16.15;47.87;100471.16;5059973;28;1910;-50
2024/01/02 02:27:20;;;;;;;;;;;;;;;15.75;47.20;100475.81;5059964;28;1186;-53
2024/01/02 02:29:45;;;;;;;;;;;;;;;15.88;47.62;100477.56;5058208;28;1047;-50
2024/01/02 02:32:11;;;;;;;;;;;;;;;16.96;46.62;100475.63;5071831;28;1234;-52
2024/01/02 02:34:38;;;;;;;;;;;;;;;15.95;47.36;100475.31;5066223;28;1148;-51
2024/01/02 02:37:04;;;;;;;;;;;;;;;15.77;46.90;100473.06;5062519;28;972;-51
2024/01/02 02:39:29;;;;;;;;;;;;;;;15.54;46.07;100465.84;5072814;28;1060;-51
2024/01/02 02:41:55;;;;;;;;;;;;;;;15.50;46.32;100459.06;5076389;28;1014;-52
2024/01/02 02:44:21;;;;;;;;;;;;;;;16.97;46.49;100460.50;5076702;28;2027;-52
2024/01/02 02:46:46;;;;;;;;;;;;;;;15.91;47.25;100454.28;5076178;28;1001;-51
2024/01/02 02:49:12;;;;;;;;;;;;;;;16.08;47.88;100446.91;5064918;28;1096;-50
2024/01/02 02:51:37;;;;;;;;;;;;;;;17.35;46.04;100446.00;5071584;28;1051;-53
2024/01/02 02:54:03;;;;;;;;;;;;;;;16.11;47.41;100446.69;5046980;28;1140;-54
2024/01/02 02:56:29;;;;;;;;;;;;;;;15.78;47.09;100441.09;5061911;28;1003;-50
2024/01/02 02:58:54;;;;;;;;;;;;;;;15.62;46.43;100436.13;5061507;28;1047;-53
2024/01/02 03:01:21;;;;;;;;;;;;;;;15.48;45.62;100445.06;5075868;28;1048;-52
2024/01/02 03:03:46;;;;;;;;;;;;;;;16.60;47.42;100453.66;5068657;28;1973;-50
2024/01/02 03:06:12;;;;;;;;;;;;;;;16.80;47.25;100454.72;5056901;28;1055;-52
2024/01/02 03:08:38;;;;;;;;;;;;;;;15.94;47.16;100445.28;5057364;28;1012;-52
2024/01/02 03:11:03;;;;;;;;;;;;;;;15.98;47.50;100444.09;5070157;28;1141;-52
2024/01/02 03:13:29;;;;;;;;;;;;;;;17.15;46.40;100450.25;5069154;28;1094;-52
2024/01/02 03:15:55;;;;;;;;;;;;;;;16.08;47.36;100443.44;5076019;28;1047;-52
2024/01/02 03:18:20;;;;;;;;;;;;;;;15.82;46.62;100446.19;5064036;28;1035;-51
2024/01/02 03:20:46;;;;;;;;;;;;;;;15.76;46.66;100451.00;5075832;28;1202;-52
2024/01/02 03:23:11;;;;;;;;;;;;;;;17.08;46.56;100455.19;5063792;28;1898;-50
2024/01/02 03:25:37;;;;;;;;;;;;;;;16.10;47.29;100457.44;5075934;28;1163;-53
2024/01/02 03:28:03;;;;;;;;;;;;;;;15.73;46.91;100450.38;5067572;28;992;-50
2024/01/02 03:30:29;;;;;;;;;;;;;;;15.62;46.02;100449.38;5069426;28;1118;-53
2024/01/02 03:32:54;;;;;;;;;;;;;;;16.85;47.24;100467.66;5045955;28;1144;-49
2024/01/02 03:35:20;;;;;;;;;;;;;;;16.32;47.21;100455.75;5062146;28;1103;-50
2024/01/02 03:37:46;;;;;;;;;;;;;;;15.83;47.14;100455.84;5065838;28;1051;-51
2024/01/02 03:40:11;;;;;;;;;;;;;;;15.61;46.39;100460.09;5069447;28;1072;-53
2024/01/02 03:42:37;;;;;;;;;;;;;;;17.18;46.81;100465.97;5056234;28;1975;-52
2024/01/02 03:45:03;;;;;;;;;;;;;;;16.12;47.51;100464.28;5069052;28;1008;-53
2024/01/02 03:47:28;;;;;;;;;;;;;;;16.16;48.21;100468.41;5065613;28;1396;-52
2024/01/02 03:49:54;;;;;;;;;;;;;;;16.89;46.77;100479.72;5068780;28;1151;-48
2024/01/02 03:52:19;;;;;;;;;;;;;;;15.98;47.64;100478.59;5070355;28;1195;-52
2024/01/02 03:54:45;;;;;;;;;;;;;;;15.76;46.61;100477.53;5076614;28;1000;-53
2024/01/02 03:57:10;;;;;;;;;;;;;;;15.70;46.11;100493.88;5069098;28;2333;-55
2024/01/02 03:59:36;;;;;;;;;;;;;;;16.56;47.03;100490.22;5067799;28;2071;-54
2024/01/02 04:02:02;;;;;;;;;;;;;;;16.23;47.20;100483.88;5068869;28;1810;-54
2024/01/02 04:04:27;;;;;;;;;;;;;;;15.84;47.15;100486.72;5066116;28;2209;-54
2024/01/02 04:06:53;;;;;;;;;;;;;;;15.97;47.83;100492.78;5064990;28;1805;-53
2024/01/02 04:09:18;;;;;;;;;;;;;;;16.76;46.57;100496.66;5074995;28;1748;-54
2024/01/02 04:11:44;;;;;;;;;;;;;;;15.87;47.21;100495.28;5065047;28;2020;-51
2024/01/02 04:14:10;;;;;;;;;;;;;;;15.64;46.73;100499.63;5075244;28;1051;-54
2024/01/02 04:16:35;;;;;;;;;;;;;;;16.41;47.67;100502.88;5075053;28;1368;-55
2024/01/02 04:19:01;;;;;;;;;;;;;;;17.30;45.82;100501.34;5075035;28;1321;-54
2024/01/02 04:21:26;;;;;;;;;;;;;;;16.13;47.31;100500.47;5074833;28;1282;-54
2024/01/02 04:23:52;;;;;;;;;;;;;;;15.80;46.80;100499.34;5074998;28;1996;-50
2024/01/02 04:26:17;;;;;;;;;;;;;;;15.69;46.32;100488.69;5075009;28;1135;-54
2024/01/02 04:28:43;;;;;;;;;;;;;;;15.52;45.65;100496.06;5074989;28;1348;-54
2024/01/02 04:31:09;;;;;;;;;;;;;;;17.10;46.63;100492.34;5075193;28;1351;-53
2024/01/02 04:33:34;;;;;;;;;;;;;;;16.42;47.47;100493.06;5075015;28;1281;-54
2024/01/02 04:36:00;;;;;;;;;;;;;;;15.84;47.33;100492.00;5070418;28;1047;-52
2024/01/02 04:38:25;;;;;;;;;;;;;;;16.14;48.48;100488.91;5071280;28;1298;-53
2024/01/02 04:40:51;;;;;;;;;;;;;;;16.79;47.22;100490.22;5074133;28;997;-51
2024/01/02 04:43:17;;;;;;;;;;;;;;;16.02;47.17;100489.81;5071719;28;1968;-51
2024/01/02 04:45:42;;;;;;;;;;;;;;;15.76;46.76;100497.91;5072541;28;1243;-53
2024/01/02 04:48:08;;;;;;;;;;;;;;;17.25;46.69;100500.88;5074646;28;1406;-50
2024/01/02 04:50:34;;;;;;;;;;;;;;;16.35;47.50;100498.03;5073038;28;1396;-54
2024/01/02 04:53:00;;;;;;;;;;;;;;;15.83;47.31;100504.41;5069069;28;1086;-52
2024/01/02 04:55:25;;;;;;;;;;;;;;;14.80;46.13;100366.88;5067071;28;1057;-55
2024/01/02 04:57:51;;;;;;;;;;;;;;;16.39;47.76;100515.41;5074949;28;1007;-59
2024/01/02 05:00:16;;;;;;;;;;;;;;;17.07;46.33;100511.13;5074756;28;1055;-49
2024/01/02 05:02:42;;;;;;;;;;;;;;;16.07;47.72;100508.91;5074170;28;1980;-53
2024/01/02 05:05:08;;;;;;;;;;;;;;;15.82;46.93;100509.84;5067393;28;880;-54
2024/01/02 05:07:33;;;;;;;;;;;;;;;15.60;46.03;100516.75;5062513;28;1052;-55
2024/01/02 05:10:00;;;;;;;;;;;;;;;15.56;45.64;100513.47;5066685;28;1016;-56
2024/01/02 05:12:26;;;;;;;;;;;;;;;17.20;46.68;100516.38;5071842;28;2485;-59
2024/01/02 05:14:52;;;;;;;;;;;;;;;16.36;47.28;100516.50;5068753;28;1070;-58
2024/01/02 05:17:18;;;;;;;;;;;;;;;15.76;47.25;100519.97;5064874;28;1119;-59
2024/01/02 05:19:43;;;;;;;;;;;;;;;16.89;47.49;100530.22;5069971;28;1127;-59
2024/01/02 05:22:09;;;;;;;;;;;;;;;16.77;46.95;100527.53;5075159;28;1209;-56
2024/01/02 05:24:34;;;;;;;;;;;;;;;17.12;46.58;100538.22;5069888;28;1915;-57
2024/01/02 05:27:00;;;;;;;;;;;;;;;16.84;46.88;100541.19;5072412;28;1044;-54
2024/01/02 05:29:26;;;;;;;;;;;;;;;16.52;47.63;100539.19;5061579;28;937;-53
2024/01/02 05:31:51;;;;;;;;;;;;;;;16.37;47.79;100539.41;5075667;28;1047;-54
2024/01/02 05:34:17;;;;;;;;;;;;;;;16.28;48.03;100534.81;5069014;28;1178;-54
2024/01/02 05:36:45;;;;;;;;;;;;;;;16.15;48.00;100529.56;5044212;28;1111;-51
2024/01/02 05:39:11;;;;;;;;;;;;;;;15.93;48.41;100536.44;5069069;28;980;-55
2024/01/02 05:41:37;;;;;;;;;;;;;;;15.78;48.86;100544.53;5066514;28;1032;-56
2024/01/02 05:44:02;;;;;;;;;;;;;;;15.72;48.81;100525.59;5072436;28;1906;-50
2024/01/02 05:46:28;;;;;;;;;;;;;;;15.59;49.06;100539.75;5078520;28;1121;-49
2024/01/02 05:48:54;;;;;;;;;;;;;;;15.96;48.69;100535.34;5078461;28;1111;-48
2024/01/02 05:51:19;;;;;;;;;;;;;;;17.37;45.11;100542.44;5078791;28;1007;-57
2024/01/02 05:53:45;;;;;;;;;;;;;;;16.54;46.79;100537.28;5066008;28;1164;-52
2024/01/02 05:56:11;;;;;;;;;;;;;;;16.01;47.77;100534.09;5078724;28;964;-50
2024/01/02 05:58:37;;;;;;;;;;;;;;;15.84;48.49;100531.81;5078073;28;1129;-51
2024/01/02 06:01:02;;;;;;;;;;;;;;;15.62;48.75;100530.72;5078572;28;1383;-51
2024/01/02 06:03:28;;;;;;;;;;;;;;;15.53;49.03;100540.19;5077876;28;2002;-52
2024/01/02 06:05:53;;;;;;;;;;;;;;;15.40;49.38;100541.06;5078291;28;1062;-56
2024/01/02 06:08:21;;;;;;;;;;;;;;;16.92;46.05;100539.75;5078625;28;1178;-53
2024/01/02 06:10:46;;;;;;;;;;;;;;;16.93;45.57;100555.59;5078814;28;1122;-54
2024/01/02 06:13:13;;;;;;;;;;;;;;;16.18;47.28;100553.22;5077914;28;1250;-52
2024/01/02 06:15:39;;;;;;;;;;;;;;;15.87;47.97;100561.59;5078365;28;1087;-56
2024/01/02 06:18:05;;;;;;;;;;;;;;;15.64;48.32;100573.88;5076331;28;1224;-51
2024/01/02 06:20:31;;;;;;;;;;;;;;;15.65;48.92;100580.88;5077944;28;1076;-56
2024/01/02 06:22:56;;;;;;;;;;;;;;;17.17;45.09;100577.72;5078017;28;1914;-52
2024/01/02 06:25:22;;;;;;;;;;;;;;;16.90;45.16;100569.09;5078296;28;1246;-52
2024/01/02 06:27:48;;;;;;;;;;;;;;;16.19;47.18;100581.47;5077216;28;1169;-52
2024/01/02 06:30:13;;;;;;;;;;;;;;;15.89;47.78;100586.22;5074309;28;887;-51
2024/01/02 06:32:39;;;;;;;;;;;;;;;15.70;48.12;100584.03;5077906;28;1195;-52
2024/01/02 06:35:05;;;;;;;;;;;;;;;15.46;48.60;100587.50;5077363;28;1011;-54
2024/01/02 06:37:30;;;;;;;;;;;;;;;16.66;46.19;100580.66;5078212;28;1067;-50
2024/01/02 06:39:56;;;;;;;;;;;;;;;17.54;44.01;100587.25;5077945;28;1027;-51
2024/01/02 06:42:21;;;;;;;;;;;;;;;16.49;46.34;100588.09;5071265;28;946;-50
2024/01/02 06:44:47;;;;;;;;;;;;;;;16.06;47.29;100586.81;5077250;28;1902;-50
2024/01/02 06:47:13;;;;;;;;;;;;;;;15.71;48.30;100596.38;5077480;28;1059;-52
2024/01/02 06:49:38;;;;;;;;;;;;;;;15.61;48.18;100604.13;5078243;28;1079;-53
2024/01/02 06:52:04;;;;;;;;;;;;;;;16.02;47.68;100606.56;5077999;28;1229;-54
2024/01/02 06:54:30;;;;;;;;;;;;;;;17.38;44.52;100602.63;5077273;28;891;-51
2024/01/02 06:56:56;;;;;;;;;;;;;;;16.62;45.85;100609.25;5077879;28;1143;-52
2024/01/02 06:59:22;;;;;;;;;;;;;;;16.16;47.06;100603.75;5059779;28;1119;-54
2024/01/02 07:01:47;;;;;;;;;;;;;;;15.85;48.06;100600.66;5077384;28;1130;-53
2024/01/02 07:04:13;;;;;;;;;;;;;;;15.69;48.18;100606.22;5077309;28;1980;-50
2024/01/02 07:06:38;;;;;;;;;;;;;;;15.61;48.55;100613.88;5069640;28;895;-54
2024/01/02 07:09:04;;;;;;;;;;;;;;;17.10;45.31;100611.94;5077344;28;1210;-47
2024/01/02 07:11:30;;;;;;;;;;;;;;;17.20;44.67;100622.69;5077655;28;1127;-53
2024/01/02 07:13:57;;;;;;;;;;;;;;;16.36;46.68;100614.72;5077545;28;1187;-53
2024/01/02 07:16:23;;;;;;;;;;;;;;;15.97;47.44;100611.31;5068510;28;1044;-49
2024/01/02 07:18:48;;;;;;;;;;;;;;;15.75;47.91;100616.38;5073584;28;854;-54
2024/01/02 07:21:14;;;;;;;;;;;;;;;15.55;48.59;100623.97;5077094;28;1039;-52
2024/01/02 07:23:39;;;;;;;;;;;;;;;16.72;46.02;100622.69;5074319;28;1966;-54
2024/01/02 07:26:05;;;;;;;;;;;;;;;17.36;44.19;100615.22;5066637;28;1060;-52
2024/01/02 07:28:30;;;;;;;;;;;;;;;16.39;46.43;100617.13;5076964;28;1079;-52
2024/01/02 07:30:56;;;;;;;;;;;;;;;16.05;47.43;100618.78;5068481;28;964;-54
2024/01/02 07:33:22;;;;;;;;;;;;;;;15.74;47.95;100622.66;5076997;28;1111;-52
2024/01/02 07:35:47;;;;;;;;;;;;;;;15.60;48.31;100617.50;5076571;28;1056;-51
2024/01/02 07:38:13;;;;;;;;;;;;;;;15.45;48.90;100619.44;5075575;28;1223;-52
2024/01/02 07:40:39;;;;;;;;;;;;;;;16.82;46.07;100609.53;5064536;28;1135;-51
2024/01/02 07:43:05;;;;;;;;;;;;;;;17.36;44.27;100617.00;5073533;28;1902;-48
2024/01/02 07:45:30;;;;;;;;;;;;;;;16.44;46.40;100618.59;5076793;28;1039;-52
2024/01/02 07:47:56;;;;;;;;;;;;;;;15.98;47.47;100621.84;5076323;28;1007;-50
2024/01/02 07:50:21;;;;;;;;;;;;;;;15.79;47.86;100624.97;5058742;28;1127;-54
2024/01/02 07:52:47;;;;;;;;;;;;;;;15.62;48.41;100628.81;5076004;28;1162;-54
2024/01/02 07:55:12;;;;;;;;;;;;;;;16.24;47.40;100620.91;5067620;28;1197;-50
2024/01/02 07:57:38;;;;;;;;;;;;;;;17.13;44.96;100622.31;5076236;28;1102;-53
2024/01/02 08:00:04;;;;;;;;;;;;;;;16.30;46.87;100614.31;5076338;28;1158;-56
2024/01/02 08:02:37;;;;;;;;;;;;;;;16.24;47.04;100620.91;5063071;28;1080;-56
2024/01/02 08:05:03;;;;;;;;;;;;;;;15.75;47.84;100624.34;5076033;28;1902;-57
2024/01/02 08:07:29;;;;;;;;;;;;;;;15.51;48.46;100614.53;5073658;28;880;-58
2024/01/02 08:09:54;;;;;;;;;;;;;;;16.86;46.06;100621.66;5076140;28;1261;-58
2024/01/02 08:12:20;;;;;;;;;;;;;;;17.17;44.95;100622.91;5076231;28;1139;-60
2024/01/02 08:14:45;;;;;;;;;;;;;;;16.39;46.88;100621.59;5076000;28;1171;-53
2024/01/02 08:17:11;;;;;;;;;;;;;;;15.96;47.85;100629.06;5076429;28;1101;-53
2024/01/02 08:19:37;;;;;;;;;;;;;;;15.76;48.02;100643.75;5074750;28;930;-49
2024/01/02 08:22:02;;;;;;;;;;;;;;;15.52;48.71;100641.88;5076168;28;1040;-53
2024/01/02 08:24:28;;;;;;;;;;;;;;;16.25;47.62;100646.50;5075818;28;1988;-52
2024/01/02 08:26:54;;;;;;;;;;;;;;;17.43;44.44;100641.31;5076471;28;1166;-49
2024/01/02 08:29:19;;;;;;;;;;;;;;;16.56;46.35;100648.69;5075473;28;1084;-51
2024/01/02 08:31:45;;;;;;;;;;;;;;;16.01;47.65;100660.59;5075978;28;968;-51
2024/01/02 08:34:10;;;;;;;;;;;;;;;15.72;48.25;100660.84;5076011;28;1213;-53
2024/01/02 08:36:36;;;;;;;;;;;;;;;15.58;48.31;100670.59;5075795;28;1118;-53
2024/01/02 08:39:03;;;;;;;;;;;;;;;16.63;46.30;100661.41;5076103;28;1078;-51
2024/01/02 08:41:28;;;;;;;;;;;;;;;17.37;44.48;100661.25;5075052;28;1103;-53
2024/01/02 08:43:54;;;;;;;;;;;;;;;16.43;46.40;100665.56;5062960;28;1906;-53
2024/01/02 08:46:19;;;;;;;;;;;;;;;16.03;47.65;100669.31;5075567;28;1075;-49
2024/01/02 08:48:45;;;;;;;;;;;;;;;15.80;48.22;100671.75;5075021;28;1043;-51
2024/01/02 08:51:11;;;;;;;;;;;;;;;16.20;47.39;100670.72;5075471;28;1067;-51
2024/01/02 08:53:37;;;;;;;;;;;;;;;17.45;44.33;100673.97;5074866;28;1250;-55
2024/01/02 08:56:02;;;;;;;;;;;;;;;16.47;46.29;100664.34;5075214;28;1147;-50
2024/01/02 08:58:28;;;;;;;;;;;;;;;16.12;47.46;100659.81;5076190;28;1096;-55
2024/01/02 09:00:54;;;;;;;;;;;;;;;15.83;47.88;100668.06;5075535;28;1113;-53
2024/01/02 09:03:19;;;;;;;;;;;;;;;15.60;48.43;100665.22;5075828;28;1914;-53
2024/01/02 09:05:45;;;;;;;;;;;;;;;15.58;48.76;100667.13;5074153;28;1086;-48
2024/01/02 09:08:11;;;;;;;;;;;;;;;17.06;45.33;100658.28;5065335;28;1051;-48
2024/01/02 09:10:37;;;;;;;;;;;;;;;17.07;44.75;100651.97;5074498;28;1182;-54
2024/01/02 09:13:03;;;;;;;;;;;;;;;16.31;46.77;100659.34;5075572;28;1015;-54
2024/01/02 09:15:30;;;;;;;;;;;;;;;15.97;47.68;100656.44;5075166;28;1165;-51
2024/01/02 09:17:55;;;;;;;;;;;;;;;15.76;48.03;100662.31;5074114;28;1111;-52
2024/01/02 09:20:21;;;;;;;;;;;;;;;15.96;48.19;100657.41;5073985;28;1048;-48
2024/01/02 09:22:46;;;;;;;;;;;;;;;17.35;44.66;100647.25;5075519;28;1020;-52
2024/01/02 09:25:12;;;;;;;;;;;;;;;17.13;44.79;100644.41;5075635;28;1909;-53
2024/01/02 09:27:37;;;;;;;;;;;;;;;16.35;46.87;100639.56;5075195;28;1126;-49
2024/01/02 09:30:04;;;;;;;;;;;;;;;16.03;47.38;100637.47;5073243;28;1121;-51
2024/01/02 09:32:30;;;;;;;;;;;;;;;15.74;48.46;100640.38;5067029;28;1212;-53
2024/01/02 09:34:55;;;;;;;;;;;;;;;15.58;48.73;100624.72;5075227;28;1170;-51
2024/01/02 09:37:21;;;;;;;;;;;;;;;15.73;48.70;100631.56;5075441;28;1293;-51
2024/01/02 09:39:47;;;;;;;;;;;;;;;17.18;45.13;100619.31;5075619;28;1043;-47
2024/01/02 09:42:15;;;;;;;;;;;;;;;17.13;44.76;100617.00;5072493;28;1139;-51
2024/01/02 09:44:40;;;;;;;;;;;;;;;16.36;46.61;100613.88;5069853;28;1914;-48
2024/01/02 09:47:12;;;;;;;;;;;;;;;16.00;47.44;100619.09;5075194;28;999;-49
2024/01/02 09:49:56;;;;;;;;;;;;;;;15.70;48.05;100618.50;5075310;28;1141;-52
2024/01/02 09:52:41;;;;;;;;;;;;;;;15.55;48.57;100618.66;5075478;28;1166;-52
2024/01/02 09:55:17;;;;;;;;;;;;;;;16.14;47.77;100616.31;5064589;28;933;-51
2024/01/02 09:58:01;;;;;;;;;;;;;;;17.48;44.53;100621.34;5078326;28;1099;-50
2024/01/02 10:00:27;;;;;;;;;;;;;;;16.67;45.96;100627.50;5077753;28;1162;-48
2024/01/02 10:03:07;;;;;;;;;;;;;;;16.10;47.56;100622.78;5078802;28;1914;-50
2024/01/02 10:05:45;;;;;;;;;;;;;;;15.86;48.15;100615.63;5078890;28;1468;-50
2024/01/02 10:08:11;;;;;;;;;;;;;;;15.69;48.50;100629.22;5073543;28;937;-50
2024/01/02 10:10:39;;;;;;;;;;;;;;;16.00;48.11;100619.94;5078527;28;1127;-54
2024/01/02 10:13:14;;;;;;;;;;;;;;;17.40;44.60;100615.78;5060138;28;1199;-53
2024/01/02 10:15:58;;;;;;;;;;;;;;;16.95;45.23;100620.06;5078386;28;1079;-48
2024/01/02 10:18:42;;;;;;;;;;;;;;;16.27;47.00;100613.59;5078093;28;1028;-51
2024/01/02 10:21:22;;;;;;;;;;;;;;;15.94;47.86;100617.72;5077807;28;1071;-50
2024/01/02 10:23:51;;;;;;;;;;;;;;;15.65;48.54;100618.00;5066929;28;1937;-52
2024/01/02 10:26:16;;;;;;;;;;;;;;;15.53;48.58;100617.91;5078469;28;1070;-51
2024/01/02 10:28:42;;;;;;;;;;;;;;;16.43;46.99;100611.59;5060416;28;1076;-55
2024/01/02 10:31:11;;;;;;;;;;;;;;;17.56;44.06;100609.25;5055049;28;1060;-51
2024/01/02 10:33:36;;;;;;;;;;;;;;;16.61;45.91;100618.19;5077902;28;1087;-53
2024/01/02 10:36:03;;;;;;;;;;;;;;;16.12;47.06;100620.88;5077634;28;1093;-52
2024/01/02 10:38:34;;;;;;;;;;;;;;;15.80;47.78;100608.09;5078287;28;1116;-46
2024/01/02 10:41:20;;;;;;;;;;;;;;;15.59;48.47;100600.72;5077686;28;1068;-50
2024/01/02 10:44:07;;;;;;;;;;;;;;;16.86;45.63;100607.50;5028425;28;1913;-51
2024/01/02 10:46:51;;;;;;;;;;;;;;;17.25;44.58;100602.75;5060023;28;1238;-50
2024/01/02 10:49:26;;;;;;;;;;;;;;;16.39;46.37;100600.34;5077754;28;1125;-49
2024/01/02 10:52:03;;;;;;;;;;;;;;;16.01;47.57;100587.16;5047001;28;1032;-49
2024/01/02 10:54:45;;;;;;;;;;;;;;;15.75;48.29;100584.56;5076850;28;1027;-51
2024/01/02 10:57:14;;;;;;;;;;;;;;;16.50;46.43;100578.28;5051030;28;1087;-54
2024/01/02 11:00:04;;;;;;;;;;;;;;;17.36;44.13;100580.66;5056364;28;1299;-50
2024/01/02 11:02:35;;;;;;;;;;;;;;;16.35;46.36;100575.00;5067113;28;1020;-53
2024/01/02 11:05:10;;;;;;;;;;;;;;;15.97;47.58;100575.03;5077062;28;1909;-52
2024/01/02 11:07:36;;;;;;;;;;;;;;;15.70;48.17;100577.91;5072469;28;1331;-51
2024/01/02 11:10:19;;;;;;;;;;;;;;;15.70;48.29;100577.91;5075827;28;1104;-47
2024/01/02 11:12:52;;;;;;;;;;;;;;;17.30;44.71;100567.81;5059545;28;1143;-51
2024/01/02 11:15:18;;;;;;;;;;;;;;;16.79;45.83;100564.63;5059524;28;1357;-49
2024/01/02 11:17:44;;;;;;;;;;;;;;;16.21;46.91;100565.41;5040849;28;1323;-49
2024/01/02 11:20:13;;;;;;;;;;;;;;;15.87;47.56;100561.59;5070125;28;1300;-53
2024/01/02 11:22:51;;;;;;;;;;;;;;;15.66;48.15;100564.84;5070873;28;1199;-49
2024/01/02 11:25:16;;;;;;;;;;;;;;;16.81;46.06;100564.50;5077714;28;1917;-53
2024/01/02 11:27:43;;;;;;;;;;;;;;;17.11;45.06;100556.00;5077102;28;1234;-54
2024/01/02 11:30:10;;;;;;;;;;;;;;;16.33;46.61;100540.59;5075452;28;1639;-53
2024/01/02 11:32:45;;;;;;;;;;;;;;;15.98;47.35;100547.56;5069953;28;1251;-53
2024/01/02 11:35:10;;;;;;;;;;;;;;;15.65;48.17;100552.56;5053228;28;1264;-49
2024/01/02 11:37:36;;;;;;;;;;;;;;;16.17;47.58;100546.22;5058866;28;1452;-51
2024/01/02 11:40:03;;;;;;;;;;;;;;;17.53;44.35;100543.03;5073441;28;1358;-49
2024/01/02 11:42:47;;;;;;;;;;;;;;;16.70;45.56;100536.13;5072782;28;1299;-51
2024/01/02 11:45:17;;;;;;;;;;;;;;;16.12;47.40;100537.75;5066948;28;1991;-48
2024/01/02 11:47:43;;;;;;;;;;;;;;;15.82;47.92;100537.22;5076546;28;1309;-50
2024/01/02 11:50:09;;;;;;;;;;;;;;;15.64;48.15;100524.34;5073318;28;1230;-48
2024/01/02 11:52:40;;;;;;;;;;;;;;;16.68;46.19;100528.28;5075880;28;1402;-53
2024/01/02 11:55:08;;;;;;;;;;;;;;;17.39;44.43;100526.34;5057437;28;1068;-49
2024/01/02 11:57:46;;;;;;;;;;;;;;;16.46;46.20;100521.09;5075515;28;1313;-52
2024/01/02 12:00:11;;;;;;;;;;;;;;;16.00;47.33;100516.47;5076326;28;1154;-50
2024/01/02 12:02:46;;;;;;;;;;;;;;;15.78;47.89;100514.56;5076278;28;1400;-53
2024/01/02 12:05:21;;;;;;;;;;;;;;;15.58;48.73;100508.03;5075039;28;1917;-50
2024/01/02 12:07:48;;;;;;;;;;;;;;;16.68;46.23;100508.81;5076275;28;1490;-47
2024/01/02 12:10:13;;;;;;;;;;;;;;;17.47;44.18;100512.44;5058220;28;1341;-51
2024/01/02 12:12:39;;;;;;;;;;;;;;;16.55;46.26;100514.25;5057345;28;1235;-50
2024/01/02 12:15:05;;;;;;;;;;;;;;;16.05;47.44;100516.13;5072034;28;996;-49
2024/01/02 12:17:33;;;;;;;;;;;;;;;15.78;48.16;100517.19;5076412;28;1090;-49
2024/01/02 12:20:04;;;;;;;;;;;;;;;15.58;48.55;100522.13;5057895;28;1305;-51
2024/01/02 12:22:31;;;;;;;;;;;;;;;16.61;46.37;100529.69;5076055;28;1090;-54
2024/01/02 12:24:56;;;;;;;;;;;;;;;17.51;44.23;100532.50;5054263;28;1992;-45
2024/01/02 12:27:23;;;;;;;;;;;;;;;16.56;46.30;100529.19;5054295;28;1054;-53
2024/01/02 12:29:51;;;;;;;;;;;;;;;16.09;47.25;100530.00;5074958;28;1119;-49
2024/01/02 12:32:40;;;;;;;;;;;;;;;15.72;48.31;100526.44;5075736;28;1337;-52
2024/01/02 12:35:09;;;;;;;;;;;;;;;17.34;44.93;100536.50;5052865;28;1043;-50
2024/01/02 12:37:41;;;;;;;;;;;;;;;16.69;46.06;100529.94;5057450;28;1128;-50
2024/01/02 12:40:10;;;;;;;;;;;;;;;16.12;47.55;100533.28;5076358;28;1167;-51
2024/01/02 12:42:41;;;;;;;;;;;;;;;15.84;48.01;100534.44;5075759;28;1111;-53
2024/01/02 12:45:09;;;;;;;;;;;;;;;15.67;48.13;100544.50;5070692;28;1918;-51
2024/01/02 12:47:36;;;;;;;;;;;;;;;15.69;48.67;100544.38;5074057;28;987;-50